Atkinson, Maine
Current Conditions -  °F | °C
As of 11:53 PM on Friday 24 Oct 2014 (Local Time) from KBGR Reporting Station
Overcast Overcast  
Wind Chill:   Ceiling: 2700
Heat Index:   Visibility: 10mi
Dew Point:   Wind: 9mph
Humidity: 93%   Direction: 330°NNW
Pressure: 29.67"   Gusts: NA
Location:  45.2129°N, 69.1615°W
Report Text: KBGR 250353Z 33008KT 10SM SCT015 OVC027 07/06 A2967 RMK AO2 SLP046 T00670056
Loading
Personal Weather Stations






























Interactive Weather Map New forecast layout! Learn more

10-Day Weather Forecast

Advertisements
Track Severe Weather on mobile